25 de setembro de 2022

Hora Código Clima Temp. Visibilidade Tecto Vento METAR/SPECI
00:30
V
12 °C 10 km+ - 230° 230° 1 kt METAR LFBM 242230Z AUTO 23001KT 9999 // NSC 12/11 Q1016
00:00
V
12 °C 10 km+ - 250° 250° 2 kt METAR LFBM 242200Z AUTO 25002KT 9999 // NSC 12/11 Q1016

24 de setembro de 2022

Hora Código Clima Temp. Visibilidade Tecto Vento METAR/SPECI
23:30
V
13 °C 10 km+ 16.000 ft 240° 240° 3 kt METAR LFBM 242130Z AUTO 24003KT 9999 // FEW031/// BKN160/// BKN190/// ///TCU 13/11 Q1016
23:00
V
13 °C 10 km+ - 260° 260° 2 kt METAR LFBM 242100Z AUTO 26002KT 9999 // //////CB 13/11 Q1016
22:30
V
14 °C 10 km+ - 230° 230° 3 kt METAR LFBM 242030Z AUTO 23003KT 9999 // NSC 14/12 Q1016
22:00
V
14 °C 10 km+ - 250° 250° 3 kt METAR LFBM 242000Z AUTO 25003KT 9999 // NSC 14/11 Q1016
21:30
V
14 °C 10 km+ 16.000 ft 240° 240° 3 kt METAR LFBM 241930Z AUTO 24003KT 210V270 9999 // FEW047 OVC160 14/12 Q1016
21:00
V
15 °C 10 km+ 17.000 ft 240° 240° 4 kt METAR LFBM 241900Z AUTO 24004KT 9999 // FEW043 BKN170 OVC190 15/12 Q1015
20:30
V
16 °C 10 km+ 18.000 ft 240° 240° 3 kt METAR LFBM 241830Z AUTO 24003KT 9999 // FEW036 OVC180 16/12 Q1015
20:00
V
16 °C 10 km+ 17.000 ft 250° 250° 5 kt METAR LFBM 241800Z AUTO 25005KT 9999 // FEW035 OVC170 16/12 Q1015
19:30
V
17 °C 10 km+ - 250° 250° 6 kt METAR LFBM 241730Z AUTO 25006KT 9999 // //////CB 17/11 Q1015
19:00
V
18 °C 10 km+ - 270° 270° 9 kt METAR LFBM 241700Z AUTO 27009KT 9999 // FEW039/// //////CB 18/11 Q1015
18:30
V
19 °C 10 km+ 17.000 ft 250° 250° 10 kt METAR LFBM 241630Z AUTO 25010KT 200V280 9999 // FEW040/// SCT084/// BKN170/// //////CB 19/11 Q1015
18:00
V
18 °C 10 km+ 10.000 ft 230° 230° 8 kt METAR LFBM 241600Z AUTO 23008KT 200V260 9999 // SCT039 BKN100 OVC130 18/15 Q1014
17:30
V
17 °C 10 km+ - 240° 240° 8 kt METAR LFBM 241530Z AUTO 24008KT 9999 // //////CB 17/15 Q1015
17:00
V
18 °C 10 km+ 14.000 ft 240° 240° 9 kt METAR LFBM 241500Z AUTO 24009KT 200V270 9999 // FEW014 BKN140 OVC220 18/15 Q1014
16:30
V
17 °C 10 km+ 12.000 ft 220° 220° 6 kt METAR LFBM 241430Z AUTO 22006KT 190V260 9999 // SCT014 OVC120 17/15 Q1014
16:00
V
17 °C 10 km+ 13.000 ft 230° 230° 5 kt METAR LFBM 241400Z AUTO 23005KT 190V280 9999 // FEW012 BKN130 OVC150 17/15 Q1014
15:30
V
17 °C 10 km+ - 230° 230° 4 kt METAR LFBM 241330Z AUTO 23004KT 190V260 9999 // NSC 17/15 Q1015
15:00
V
16 °C 10 km+ - 230° 230° 4 kt METAR LFBM 241300Z AUTO 23004KT 190V270 9999 // ///CB 16/14 Q1015
14:30
V
15 °C 10 km+ - 240° 240° 6 kt METAR LFBM 241230Z AUTO 24006KT 9999 // //////CB 15/14 Q1015
14:00
M
15 °C 6 km 8.200 ft 250° 250° 7 kt METAR LFBM 241200Z AUTO 25007KT 220V280 6000 // FEW006/// OVC082/// //////CB 15/14 Q1016
13:30
I
16 °C 10 km+ 600 ft 240° 240° 7 kt METAR LFBM 241130Z AUTO 24007KT 9999 // BKN006/// BKN020/// BKN028/// //////CB 16/15 Q1016
13:00
V
15 °C 10 km+ 9.200 ft 220° 220° 6 kt METAR LFBM 241100Z AUTO 22006KT 190V250 9999 // FEW007/// OVC092/// ///CB 15/15 Q1016
12:30
V
16 °C 10 km+ 9.800 ft 250° 250° 7 kt METAR LFBM 241030Z AUTO 25007KT 220V280 9999 // FEW015/// OVC098/// //////CB 16/15 Q1016
12:00
V
16 °C 10 km+ 12.000 ft 240° 240° 5 kt METAR LFBM 241000Z AUTO 24005KT 210V270 9999 // FEW027/// OVC120/// //////CB 16/15 Q1016
11:30
V
15 °C 10 km+ - 210° 210° 3 kt METAR LFBM 240930Z AUTO 21003KT 140V270 9999 // //////CB 15/15 Q1016
11:00
V
15 °C 9 km - 220° 220° 3 kt METAR LFBM 240900Z AUTO 22003KT 170V270 9000 // //////CB 15/14 Q1016
10:30
I
14 °C 3 km 7.000 ft Var Var 2 kt METAR LFBM 240830Z AUTO VRB02KT 3000 // FEW005/// SCT014/// BKN070/// //////CB 14/13 Q1016
10:00
M
14 °C 10 km+ 2.000 ft 210° 210° 5 kt METAR LFBM 240800Z AUTO 21005KT 180V250 9999 // SCT012/// BKN020/// BKN039/// //////CB 14/14 Q1015
09:30
V
14 °C 10 km+ 4.700 ft Var 000° 0 kt METAR LFBM 240730Z AUTO 00000KT 9999 // FEW026/// SCT041/// BKN047/// //////CB 14/13 Q1015
09:00
V
13 °C 10 km+ 4.700 ft Var 000° 0 kt METAR LFBM 240700Z AUTO 00000KT 9999 // FEW025/// BKN047/// OVC092/// //////CB 13/13 Q1015
08:30
V
13 °C 10 km+ 8.600 ft 070° 070° 1 kt METAR LFBM 240630Z AUTO 07001KT 9999 // FEW022/// SCT048/// BKN086/// //////TCU 13/13 Q1015
08:00
M
11 °C 7 km 8.600 ft 100° 100° 2 kt METAR LFBM 240600Z AUTO 10002KT 7000 // FEW004 SCT050 BKN086 11/11 Q1015
07:30
L
11 °C 1,3 km - 070° 070° 3 kt METAR LFBM 240530Z AUTO 07003KT 1300 R27/1600D // VV/// 11/10 Q1014
07:00
L
11 °C 1 km - 090° 090° 3 kt METAR LFBM 240500Z AUTO 09003KT 1000 R27/1200D // VV/// 11/11 Q1014
06:30
L
12 °C 450 m - 100° 100° 2 kt METAR LFBM 240430Z AUTO 10002KT 0450 R27/0550D // VV/// 12/12 Q1014
06:00
L
12 °C 350 m - 120° 120° 1 kt METAR LFBM 240400Z AUTO 12001KT 0350 R27/0400N // VV/// 12/12 Q1014
05:30
L
12 °C 650 m - 090° 090° 2 kt METAR LFBM 240330Z AUTO 09002KT 0650 R27/0700D // VV/// 12/12 Q1015
05:00
L
11 °C 600 m 300 ft Var 000° 0 kt METAR LFBM 240300Z AUTO 00000KT 0600 R27/1400U // BKN003 11/11 Q1015
04:30
L
12 °C 1 km - Var 000° 0 kt METAR LFBM 240230Z AUTO 00000KT 1000 R27/1000D // VV/// 12/11 Q1015
04:00
L
13 °C 550 m - Var 000° 0 kt METAR LFBM 240200Z AUTO 00000KT 0550 R27/1200U // NSC 13/13 Q1015
03:30
I
14 °C 4,8 km - Var Var 1 kt METAR LFBM 240130Z AUTO VRB01KT 4800 R27/1300U // NSC 14/13 Q1015
03:00
I
14 °C 3,1 km - 200° 200° 2 kt METAR LFBM 240100Z AUTO 20002KT 3100 // NSC 14/14 Q1016
02:30
M
14 °C 7 km - 270° 270° 2 kt METAR LFBM 240030Z AUTO 27002KT 7000 // NSC 14/14 Q1016
02:00
V
14 °C 10 km+ - Var 000° 0 kt METAR LFBM 240000Z AUTO 00000KT 9999 // NSC 14/14 Q1016
01:30
V
14 °C 10 km+ 13.000 ft 280° 280° 2 kt METAR LFBM 232330Z AUTO 28002KT 9999 // FEW023 OVC130 14/14 Q1016
01:00
V
14 °C 10 km+ 14.000 ft 270° 270° 2 kt METAR LFBM 232300Z AUTO 27002KT 9999 // FEW026 OVC140 14/14 Q1017
00:30
V
15 °C 10 km+ 15.000 ft 250° 250° 2 kt METAR LFBM 232230Z AUTO 25002KT 9999 // FEW026 SCT130 BKN150 15/14 Q1017
00:00
V
15 °C 10 km+ - Var Var 2 kt METAR LFBM 232200Z AUTO VRB02KT 9999 // NSC 15/14 Q1017

23 de setembro de 2022

Hora Código Clima Temp. Visibilidade Tecto Vento METAR/SPECI
23:30
V
16 °C 10 km+ 6.000 ft Var Var 2 kt METAR LFBM 232130Z AUTO VRB02KT 9999 // FEW038 OVC060 16/15 Q1017
23:00
V
15 °C 10 km+ 5.400 ft Var Var 2 kt METAR LFBM 232100Z AUTO VRB02KT 9999 // FEW025 OVC054 15/14 Q1017
22:30
V
16 °C 10 km+ - 180° 180° 2 kt METAR LFBM 232030Z AUTO 18002KT 9999 // NSC 16/14 Q1017
22:00
V
15 °C 10 km+ 4.700 ft Var Var 2 kt METAR LFBM 232000Z AUTO VRB02KT 9999 // OVC047 15/14 Q1017
21:30
V
15 °C 10 km+ 3.900 ft Var Var 2 kt METAR LFBM 231930Z AUTO VRB02KT 9999 // OVC039 15/14 Q1017
21:00
V
16 °C 10 km+ 3.500 ft 240° 240° 3 kt METAR LFBM 231900Z AUTO 24003KT 9999 // OVC035 16/14 Q1017
20:30
V
16 °C 10 km+ 3.700 ft Var Var 3 kt METAR LFBM 231830Z AUTO VRB03KT 9999 // OVC037 16/14 Q1017
20:00
M
16 °C 10 km+ 2.800 ft 210° 210° 3 kt METAR LFBM 231800Z AUTO 21003KT 180V250 9999 // OVC028 16/14 Q1017
19:30
M
16 °C 10 km+ 2.300 ft 240° 240° 6 kt METAR LFBM 231730Z AUTO 24006KT 210V270 9999 // SCT017/// BKN023/// BKN039/// ///CB 16/14 Q1017
19:00
M
16 °C 5 km 9.200 ft 240° 240° 4 kt METAR LFBM 231700Z AUTO 24004KT 200V270 5000 // FEW005/// OVC092/// ///CB 16/15 Q1016
18:30
I
16 °C 4,5 km - 290° 290° 4 kt METAR LFBM 231630Z AUTO 29004KT 4500 // //////CB 16/16 Q1016
18:00
V
16 °C 10 km+ 9.000 ft 320° 320° 5 kt METAR LFBM 231600Z AUTO 32005KT 9999 // FEW021/// SCT074/// OVC090/// //////CB 16/15 Q1016
17:30
V
18 °C 10 km+ 7.400 ft Var 000° 0 kt METAR LFBM 231530Z AUTO 00000KT 9999 // FEW015/// OVC074/// ///CB 18/14 Q1016
17:00
V
20 °C 10 km+ 6.800 ft 280° 280° 6 kt METAR LFBM 231500Z AUTO 28006KT 9999 // FEW026/// OVC068/// ///CB 20/11 Q1016
16:30
V
21 °C 10 km+ - 260° 260° 5 kt METAR LFBM 231430Z AUTO 26005KT 9999 // //////CB 21/11 Q1016
16:00
V
21 °C 10 km+ 11.000 ft 290° 290° 4 kt METAR LFBM 231400Z AUTO 29004KT 260V320 9999 // FEW031/// SCT064/// OVC110/// //////CB 21/10 Q1016
15:30
V
21 °C 10 km+ 11.000 ft 270° 270° 5 kt METAR LFBM 231330Z AUTO 27005KT 230V320 9999 // FEW049 OVC110 21/11 Q1016
15:00
V
21 °C 10 km+ - 270° 270° 5 kt METAR LFBM 231300Z AUTO 27005KT 240V300 9999 // ///TCU 21/12 Q1016
14:30
V
21 °C 10 km+ 11.000 ft 270° 270° 5 kt METAR LFBM 231230Z AUTO 27005KT 250V310 9999 // FEW025 SCT082 OVC110 21/12 Q1016
14:00
V
21 °C 10 km+ 11.000 ft 280° 280° 5 kt METAR LFBM 231200Z AUTO 28005KT 9999 // FEW033 BKN110 OVC150 21/10 Q1017
13:30
V
20 °C 10 km+ 11.000 ft 280° 280° 6 kt METAR LFBM 231130Z AUTO 28006KT 9999 // FEW041 OVC110 20/11 Q1017
13:00
V
21 °C 10 km+ - 270° 270° 5 kt METAR LFBM 231100Z AUTO 27005KT 240V300 9999 // NSC 21/12 Q1017
12:30
V
21 °C 10 km+ - 280° 280° 3 kt METAR LFBM 231030Z AUTO 28003KT 220V320 9999 // NSC 21/11 Q1017
12:00
V
20 °C 10 km+ - Var Var 1 kt METAR LFBM 231000Z AUTO VRB01KT 9999 // NSC 20/11 Q1017
11:30
V
20 °C 10 km+ - Var Var 2 kt METAR LFBM 230930Z AUTO VRB02KT 9999 // NSC 20/13 Q1017
11:00
V
17 °C 10 km+ - Var Var 1 kt METAR LFBM 230900Z AUTO VRB01KT 9999 // NSC 17/11 Q1017
10:30
V
16 °C 10 km+ - Var Var 1 kt METAR LFBM 230830Z AUTO VRB01KT 9999 // NSC 16/11 Q1017
10:00
V
14 °C 10 km+ - Var Var 2 kt METAR LFBM 230800Z AUTO VRB02KT 9999 // NSC 14/09 Q1017
09:30
V
12 °C 10 km+ - Var Var 2 kt METAR LFBM 230730Z AUTO VRB02KT 9999 // NSC 12/09 Q1017
09:00
V
11 °C 10 km+ - 100° 100° 2 kt METAR LFBM 230700Z AUTO 10002KT 9999 // NSC 11/08 Q1017
08:30
V
9 °C 10 km+ - 070° 070° 3 kt METAR LFBM 230630Z AUTO 07003KT 9999 // NSC 09/07 Q1017
08:00
V
9 °C 10 km+ - 070° 070° 2 kt METAR LFBM 230600Z AUTO 07002KT 9999 // NSC 09/07 Q1017
07:30
V
8 °C 10 km+ - 070° 070° 3 kt METAR LFBM 230530Z AUTO 07003KT 9999 // NSC 08/07 Q1017
07:00
V
8 °C 10 km+ - 060° 060° 3 kt METAR LFBM 230500Z AUTO 06003KT 9999 // NSC 08/06 Q1017
06:30
V
8 °C 10 km+ - 060° 060° 2 kt METAR LFBM 230430Z AUTO 06002KT 9999 // NSC 08/05 Q1017
06:00
V
8 °C 10 km+ - Var 000° 0 kt METAR LFBM 230400Z AUTO 00000KT 9999 // NSC 08/06 Q1017
05:30
V
8 °C 10 km+ - 060° 060° 2 kt METAR LFBM 230330Z AUTO 06002KT 9999 // NSC 08/06 Q1017
05:00
V
8 °C 10 km+ - 080° 080° 2 kt METAR LFBM 230300Z AUTO 08002KT 9999 // NSC 08/05 Q1017
04:30
V
9 °C 10 km+ - 060° 060° 1 kt METAR LFBM 230230Z AUTO 06001KT 9999 // NSC 09/06 Q1017
04:00
V
9 °C 10 km+ - Var 000° 0 kt METAR LFBM 230200Z AUTO 00000KT 9999 // NSC 09/07 Q1017
03:30
V
10 °C 10 km+ - Var 000° 0 kt METAR LFBM 230130Z AUTO 00000KT 9999 // NSC 10/06 Q1017
03:00
V
11 °C 10 km+ - Var 000° 0 kt METAR LFBM 230100Z AUTO 00000KT 9999 // NSC 11/07 Q1018
02:30
V
11 °C 10 km+ - Var 000° 0 kt METAR LFBM 230030Z AUTO 00000KT 9999 // NSC 11/07 Q1018
02:00
V
12 °C 10 km+ - Var Var 2 kt METAR LFBM 230000Z AUTO VRB02KT 9999 // NSC 12/07 Q1018
01:30
V
12 °C 10 km+ - 260° 260° 2 kt METAR LFBM 222330Z AUTO 26002KT 9999 // NSC 12/07 Q1018
01:00
V
13 °C 10 km+ - 290° 290° 1 kt METAR LFBM 222300Z AUTO 29001KT 9999 // NSC 13/07 Q1018
00:30
V
13 °C 10 km+ - Var 000° 0 kt METAR LFBM 222230Z AUTO 00000KT 9999 // NSC 13/07 Q1018
00:00
V
13 °C 10 km+ - Var Var 2 kt METAR LFBM 222200Z AUTO VRB02KT 9999 // NSC 13/06 Q1018

22 de setembro de 2022

Hora Código Clima Temp. Visibilidade Tecto Vento METAR/SPECI
23:30
V
14 °C 10 km+ - 260° 260° 4 kt METAR LFBM 222130Z AUTO 26004KT 9999 // NSC 14/06 Q1018
23:00
V
15 °C 10 km+ - 280° 280° 2 kt METAR LFBM 222100Z AUTO 28002KT 9999 // NSC 15/07 Q1018
22:30
V
17 °C 10 km+ - 290° 290° 4 kt METAR LFBM 222030Z AUTO 29004KT 9999 // NSC 17/07 Q1018
22:00
V
18 °C 10 km+ - 330° 330° 3 kt METAR LFBM 222000Z AUTO 33003KT 9999 // NSC 18/07 Q1018
21:30
V
19 °C 10 km+ - 330° 330° 3 kt METAR LFBM 221930Z AUTO 33003KT 290V350 9999 // NSC 19/07 Q1018
21:00
V
19 °C 10 km+ - 290° 290° 4 kt METAR LFBM 221900Z AUTO 29004KT 9999 // NSC 19/07 Q1018
20:30
V
21 °C 10 km+ - 280° 280° 5 kt METAR LFBM 221830Z AUTO 28005KT 9999 // NSC 21/07 Q1017
20:00
V
23 °C 10 km+ - 310° 310° 5 kt METAR LFBM 221800Z AUTO 31005KT 9999 // NSC 23/07 Q1017
19:30
V
25 °C 10 km+ - 300° 300° 10 kt METAR LFBM 221730Z AUTO 30010KT 260V340 9999 // NSC 25/07 Q1017
19:00
V
27 °C 10 km+ - 210° 210° 4 kt METAR LFBM 221700Z AUTO 21004KT 9999 // NSC 27/09 Q1016
18:30
V
27 °C 10 km+ - 240° 240° 5 kt METAR LFBM 221630Z AUTO 24005KT 210V290 9999 // NSC 27/08 Q1017
18:00
V
27 °C 10 km+ - 250° 250° 5 kt METAR LFBM 221600Z AUTO 25005KT 180V280 9999 // NSC 27/08 Q1017
17:30
V
28 °C 10 km+ - 290° 290° 3 kt METAR LFBM 221530Z AUTO 29003KT 180V350 9999 // NSC 28/09 Q1017
17:00
V
27 °C 10 km+ - Var Var 3 kt METAR LFBM 221500Z AUTO VRB03KT 9999 // NSC 27/09 Q1017
Dados mais antigos

Nós e terceiros acompanhamos seu comportamento na internet em nosso site com cookies. Se você continuar, nós assumimos que você concorda com nossa política de cookies. Saiba mais